Old Town, Florida
Current Conditions -  °F | °C
As of 6:53 PM on Saturday 22 Nov 2014 (Local Time) from KGNV Reporting Station
Overcast Overcast  
Wind Chill: 65°   Ceiling: 4000
Heat Index: 65°   Visibility: 10mi
Dew Point: 63°   Wind: 12mph
Humidity: 93%   Direction: 90°E
Pressure: 30.16"   Gusts: NA
Location:  29.6°N, 82.98°W
Report Text: KGNV 222353Z 09010KT 10SM FEW025 BKN040 OVC055 18/17 A3016 RMK AO2 SLP212 60001 T01830172 10222 20183 56009
Loading
Personal Weather Stations






























Interactive Weather Map New forecast layout! Learn more

10-Day Weather Forecast

Advertisements
Track Severe Weather on mobile